Time;durP1;ratioP1;P1;durP2;ratioP2;P2;SDS_P1;SDS_P2;PMS_P1;PMS_P2;Temp;Humidity;BMP_temperature;BMP_pressure;BME280_temperature;BME280_humidity;BME280_pressure;Samples;Min_cycle;Max_cycle;Signal;HPM_P1;HPM_P2
2023/06/13 00:02:01;;;;;;;4.68;3.20;;;24.80;42.30;;;;;;5085379;28;20107;-65
2023/06/13 00:04:30;;;;;;;3.80;3.20;;;24.70;42.40;;;;;;5070700;28;20571;-65
2023/06/13 00:06:57;;;;;;;4.13;3.20;;;24.70;42.40;;;;;;5072866;28;20555;-65
2023/06/13 00:09:25;;;;;;;4.70;3.35;;;24.60;42.30;;;;;;5069223;28;20148;-65
2023/06/13 00:11:51;;;;;;;4.22;3.28;;;24.60;42.40;;;;;;5058680;28;20034;-65
2023/06/13 00:14:21;;;;;;;3.72;3.10;;;24.60;42.60;;;;;;5064740;28;20537;-64
2023/06/13 00:16:48;;;;;;;5.77;3.47;;;24.50;43.10;;;;;;5081194;28;20036;-65
2023/06/13 00:19:14;;;;;;;5.53;3.65;;;24.50;42.80;;;;;;5068484;28;20028;-65
2023/06/13 00:21:41;;;;;;;4.80;3.28;;;24.50;42.70;;;;;;5082954;28;20050;-65
2023/06/13 00:24:07;;;;;;;4.90;3.33;;;24.40;42.80;;;;;;5067827;28;20369;-65
2023/06/13 00:26:33;;;;;;;4.93;3.40;;;24.30;42.80;;;;;;5057564;28;20426;-65
2023/06/13 00:28:59;;;;;;;5.10;3.20;;;24.30;42.80;;;;;;5082406;27;20455;-65
2023/06/13 00:31:32;;;;;;;3.88;3.22;;;24.30;42.90;;;;;;5072801;28;20034;-65
2023/06/13 00:33:59;;;;;;;3.80;2.90;;;24.20;43.00;;;;;;5057303;28;20028;-65
2023/06/13 00:36:27;;;;;;;3.75;3.05;;;24.20;43.00;;;;;;5086380;28;20765;-65
2023/06/13 00:38:53;;;;;;;4.40;3.20;;;24.10;43.20;;;;;;5075387;28;20054;-65
2023/06/13 00:41:19;;;;;;;5.35;3.33;;;24.10;43.30;;;;;;5072166;28;20218;-65
2023/06/13 00:43:45;;;;;;;4.25;3.20;;;24.10;43.40;;;;;;5060552;28;20032;-65
2023/06/13 00:46:13;;;;;;;4.53;3.40;;;24.10;43.50;;;;;;5065593;28;20039;-65
2023/06/13 00:48:42;;;;;;;3.95;3.05;;;24.00;43.40;;;;;;5084151;28;20145;-65
2023/06/13 00:51:09;;;;;;;5.07;3.15;;;24.00;43.70;;;;;;5068233;28;20023;-65
2023/06/13 00:53:36;;;;;;;3.75;3.00;;;23.90;43.70;;;;;;5083772;28;20024;-64
2023/06/13 00:56:04;;;;;;;4.95;3.15;;;23.90;43.60;;;;;;5071635;28;20040;-65
2023/06/13 00:58:30;;;;;;;5.63;3.40;;;23.90;43.70;;;;;;5054694;28;20127;-65
2023/06/13 01:00:57;;;;;;;3.88;3.00;;;23.80;43.90;;;;;;5053309;28;20582;-65
2023/06/13 01:03:23;;;;;;;4.07;3.22;;;23.70;43.90;;;;;;5096346;27;20238;-64
2023/06/13 01:05:49;;;;;;;4.85;3.67;;;23.70;44.00;;;;;;5075032;28;20073;-65
2023/06/13 01:08:21;;;;;;;5.10;3.35;;;23.70;44.10;;;;;;5082092;28;20640;-64
2023/06/13 01:11:02;;;;;;;4.63;3.30;;;23.60;44.60;;;;;;5072855;28;20032;-65
2023/06/13 01:13:50;;;;;;;3.90;3.10;;;23.60;44.90;;;;;;5098341;27;20667;-65
2023/06/13 01:16:19;;;;;;;3.85;2.83;;;23.60;44.60;;;;;;5039231;28;20036;-65
2023/06/13 01:18:49;;;;;;;3.95;2.97;;;23.50;44.70;;;;;;5075700;28;20427;-64
2023/06/13 01:21:17;;;;;;;3.97;3.10;;;23.50;44.50;;;;;;5057509;28;20043;-65
2023/06/13 01:24:05;;;;;;;4.60;3.33;;;23.40;44.70;;;;;;5079135;28;20924;-64
2023/06/13 01:26:53;;;;;;;3.67;3.00;;;23.40;45.40;;;;;;5074288;28;20043;-65
2023/06/13 01:29:20;;;;;;;4.72;3.35;;;23.40;45.30;;;;;;5077027;28;20028;-65
2023/06/13 01:31:49;;;;;;;3.47;3.03;;;23.30;44.70;;;;;;5049853;28;20251;-65
2023/06/13 01:34:16;;;;;;;4.53;3.10;;;23.20;44.80;;;;;;5086068;28;20093;-64
2023/06/13 01:36:42;;;;;;;4.53;3.27;;;23.20;44.80;;;;;;5070631;28;20339;-64
2023/06/13 01:39:08;;;;;;;4.47;3.38;;;23.10;44.90;;;;;;5082612;28;20105;-65
2023/06/13 01:41:34;;;;;;;3.95;3.15;;;23.10;45.00;;;;;;5070829;28;20047;-65
2023/06/13 01:44:02;;;;;;;4.40;3.30;;;23.10;45.10;;;;;;5083379;28;20020;-65
2023/06/13 01:46:33;;;;;;;5.70;3.53;;;23.00;45.20;;;;;;5048786;28;20043;-65
2023/06/13 01:49:21;;;;;;;5.30;3.17;;;23.00;45.50;;;;;;5083712;28;20035;-64
2023/06/13 01:51:55;;;;;;;4.47;3.00;;;22.90;46.00;;;;;;5082985;28;20228;-65
2023/06/13 01:54:23;;;;;;;6.18;3.30;;;22.90;45.90;;;;;;5069366;28;20138;-65
2023/06/13 01:56:54;;;;;;;4.97;3.20;;;22.90;45.50;;;;;;5059417;28;20387;-64
2023/06/13 01:59:25;;;;;;;4.32;3.15;;;22.80;45.50;;;;;;5079514;28;20457;-65
2023/06/13 02:01:53;;;;;;;4.78;3.28;;;22.80;46.00;;;;;;5053074;28;20602;-65
2023/06/13 02:04:19;;;;;;;6.10;3.60;;;22.80;45.80;;;;;;5083116;28;20686;-65
2023/06/13 02:06:45;;;;;;;4.93;3.58;;;22.70;45.90;;;;;;5082438;28;20016;-65
2023/06/13 02:09:11;;;;;;;5.83;3.43;;;22.70;46.00;;;;;;5073719;28;20046;-64
2023/06/13 02:11:37;;;;;;;4.88;3.40;;;22.70;46.10;;;;;;5069999;28;20019;-64
2023/06/13 02:14:03;;;;;;;5.75;3.50;;;22.60;46.10;;;;;;5082759;28;20062;-64
2023/06/13 02:16:30;;;;;;;4.73;3.30;;;22.60;46.30;;;;;;5082018;28;20024;-65
2023/06/13 02:18:59;;;;;;;4.20;3.45;;;22.50;46.30;;;;;;5052109;28;20592;-65
2023/06/13 02:21:26;;;;;;;5.03;3.33;;;22.50;46.40;;;;;;5079414;27;20024;-65
2023/06/13 02:23:52;;;;;;;5.63;3.13;;;22.40;46.60;;;;;;5054315;28;20104;-65
2023/06/13 02:26:19;;;;;;;4.53;3.40;;;22.40;46.60;;;;;;5067055;28;20032;-65
2023/06/13 02:28:45;;;;;;;5.13;3.33;;;22.30;46.60;;;;;;5074790;28;20236;-64
2023/06/13 02:31:11;;;;;;;5.40;3.33;;;22.30;46.70;;;;;;5083651;28;20075;-64
2023/06/13 02:33:38;;;;;;;5.47;3.47;;;22.30;46.80;;;;;;5048621;28;20192;-64
2023/06/13 02:36:07;;;;;;;4.32;3.10;;;22.20;46.90;;;;;;5079638;28;20115;-63
2023/06/13 02:38:33;;;;;;;6.57;3.37;;;22.10;47.10;;;;;;5077013;28;20078;-64
2023/06/13 02:40:59;;;;;;;5.38;3.30;;;22.00;47.00;;;;;;5072854;28;20025;-64
2023/06/13 02:43:25;;;;;;;5.05;3.45;;;22.10;47.20;;;;;;5070701;28;20027;-65
2023/06/13 02:45:52;;;;;;;4.40;3.30;;;22.00;47.30;;;;;;5078459;28;20425;-65
2023/06/13 02:48:17;;;;;;;5.13;3.50;;;21.90;47.30;;;;;;5084255;28;20397;-64
2023/06/13 02:50:43;;;;;;;4.18;3.38;;;21.90;47.50;;;;;;5050791;28;20550;-65
2023/06/13 02:53:09;;;;;;;4.30;3.22;;;21.90;47.70;;;;;;5082097;28;20084;-65
2023/06/13 02:55:36;;;;;;;4.93;3.27;;;21.80;47.60;;;;;;5072139;28;20039;-64
2023/06/13 02:58:02;;;;;;;5.13;3.40;;;21.80;47.80;;;;;;5065886;28;20255;-64
2023/06/13 03:00:28;;;;;;;4.20;3.05;;;21.70;47.80;;;;;;5081788;28;20105;-64
2023/06/13 03:03:02;;;;;;;5.53;3.50;;;21.70;47.80;;;;;;5082577;28;20038;-65
2023/06/13 03:05:27;;;;;;;5.47;3.22;;;21.70;47.90;;;;;;5056125;28;20015;-65
2023/06/13 03:07:58;;;;;;;4.77;3.00;;;21.60;47.80;;;;;;5080933;28;20028;-65
2023/06/13 03:10:25;;;;;;;6.00;3.40;;;21.60;48.00;;;;;;5071124;28;20370;-64
2023/06/13 03:12:51;;;;;;;4.63;3.17;;;21.60;48.10;;;;;;5076973;28;20020;-65
2023/06/13 03:15:17;;;;;;;4.25;3.08;;;21.50;48.10;;;;;;5069929;28;20539;-65
2023/06/13 03:17:44;;;;;;;4.15;3.15;;;21.50;48.30;;;;;;5079337;28;20315;-65
2023/06/13 03:20:11;;;;;;;4.73;3.37;;;21.50;48.40;;;;;;5051654;28;20250;-64
2023/06/13 03:22:37;;;;;;;4.43;3.35;;;21.40;48.50;;;;;;5083935;28;20046;-64
2023/06/13 03:25:04;;;;;;;4.43;3.08;;;21.40;48.50;;;;;;5087491;28;20484;-65
2023/06/13 03:27:32;;;;;;;5.13;3.38;;;21.30;48.50;;;;;;5072162;28;20329;-64
2023/06/13 03:29:58;;;;;;;4.15;3.15;;;21.30;48.70;;;;;;5069395;28;20155;-65
2023/06/13 03:32:24;;;;;;;3.90;3.10;;;21.30;48.80;;;;;;5069110;28;20027;-64
2023/06/13 03:34:52;;;;;;;4.10;3.20;;;21.20;48.90;;;;;;5065295;28;20031;-65
2023/06/13 03:37:19;;;;;;;4.63;3.33;;;21.20;49.00;;;;;;5081197;28;20055;-64
2023/06/13 03:39:45;;;;;;;5.15;3.40;;;21.20;49.20;;;;;;5084334;28;20110;-65
2023/06/13 03:42:11;;;;;;;4.07;3.00;;;21.20;49.10;;;;;;5066720;28;20712;-64
2023/06/13 03:44:37;;;;;;;3.80;3.00;;;21.10;49.30;;;;;;5073402;28;20042;-65
2023/06/13 03:47:03;;;;;;;4.32;3.13;;;21.10;49.30;;;;;;5065732;28;20032;-65
2023/06/13 03:49:28;;;;;;;5.37;3.20;;;21.00;49.30;;;;;;5051600;28;20283;-65
2023/06/13 03:51:54;;;;;;;3.80;3.00;;;21.00;49.30;;;;;;5055654;28;20036;-64
2023/06/13 03:54:23;;;;;;;4.40;3.03;;;21.00;49.50;;;;;;5080874;28;20412;-64
2023/06/13 03:56:49;;;;;;;4.60;3.30;;;21.00;49.60;;;;;;5081804;28;20554;-64
2023/06/13 03:59:16;;;;;;;4.57;3.30;;;20.90;49.70;;;;;;5066649;28;20024;-65
2023/06/13 04:01:42;;;;;;;5.82;3.08;;;20.90;49.80;;;;;;5084079;28;20040;-64
2023/06/13 04:04:11;;;;;;;4.30;3.22;;;20.90;49.80;;;;;;5087964;28;20647;-65
2023/06/13 04:06:37;;;;;;;3.90;2.97;;;20.90;50.10;;;;;;5051498;28;20059;-64
2023/06/13 04:09:05;;;;;;;4.78;3.20;;;20.80;50.10;;;;;;5083060;28;20180;-65
2023/06/13 04:11:32;;;;;;;4.75;3.20;;;20.80;50.30;;;;;;5083589;28;20234;-64
2023/06/13 04:13:57;;;;;;;5.53;2.92;;;20.80;50.30;;;;;;5076893;28;20059;-65
2023/06/13 04:16:23;;;;;;;4.40;3.00;;;20.80;50.50;;;;;;5071770;28;20326;-65
2023/06/13 04:18:49;;;;;;;4.03;3.00;;;20.70;50.50;;;;;;5084560;28;20069;-65
2023/06/13 04:21:15;;;;;;;4.73;3.00;;;20.70;50.50;;;;;;5086720;28;20055;-65
2023/06/13 04:23:41;;;;;;;5.10;3.10;;;20.80;50.60;;;;;;5054002;28;20032;-64
2023/06/13 04:26:07;;;;;;;5.47;3.10;;;20.80;50.60;;;;;;5090136;27;20069;-66
2023/06/13 04:28:35;;;;;;;4.27;2.93;;;20.80;50.70;;;;;;5080420;28;20323;-64
2023/06/13 04:31:03;;;;;;;5.07;2.90;;;20.80;50.90;;;;;;5072370;28;20062;-65
2023/06/13 04:33:29;;;;;;;5.50;3.05;;;20.70;50.80;;;;;;5077087;28;20139;-64
2023/06/13 04:36:03;;;;;;;7.95;3.10;;;20.80;51.10;;;;;;5084428;28;20133;-64
2023/06/13 04:38:29;;;;;;;5.00;3.05;;;20.80;51.20;;;;;;5051485;28;20520;-65
2023/06/13 04:40:56;;;;;;;3.70;2.87;;;20.80;51.30;;;;;;5085302;28;20039;-65
2023/06/13 04:43:22;;;;;;;5.75;3.08;;;20.80;51.40;;;;;;5065661;28;20023;-65
2023/06/13 04:45:48;;;;;;;4.40;2.83;;;20.80;51.30;;;;;;5074370;28;20037;-65
2023/06/13 04:48:15;;;;;;;7.57;3.17;;;20.90;51.30;;;;;;5070196;28;20685;-64
2023/06/13 04:50:41;;;;;;;4.28;2.63;;;20.90;51.30;;;;;;5086466;28;20028;-64
2023/06/13 04:53:11;;;;;;;3.00;2.43;;;20.90;51.20;;;;;;5079578;28;20032;-65
2023/06/13 04:55:40;;;;;;;3.65;2.63;;;21.00;51.40;;;;;;5051855;28;20031;-64
2023/06/13 04:58:06;;;;;;;6.22;2.70;;;21.00;51.40;;;;;;5078168;28;20062;-65
2023/06/13 05:00:32;;;;;;;4.90;2.80;;;21.00;51.10;;;;;;5068366;28;20048;-65
2023/06/13 05:03:00;;;;;;;3.67;2.60;;;21.10;51.20;;;;;;5058200;28;20046;-64
2023/06/13 05:05:26;;;;;;;3.70;2.58;;;21.10;51.40;;;;;;5083976;28;20046;-63
2023/06/13 05:07:55;;;;;;;4.75;2.80;;;21.10;51.40;;;;;;5064875;28;20028;-64
2023/06/13 05:10:25;;;;;;;3.50;2.50;;;21.20;51.60;;;;;;5041013;28;20096;-64
2023/06/13 05:12:52;;;;;;;4.10;2.80;;;21.20;51.70;;;;;;5087458;28;20046;-65
2023/06/13 05:15:19;;;;;;;4.60;2.75;;;21.20;51.30;;;;;;5075908;28;20147;-64
2023/06/13 05:17:45;;;;;;;5.80;2.65;;;21.30;51.40;;;;;;5061986;28;20026;-64
2023/06/13 05:20:12;;;;;;;6.22;2.72;;;21.30;51.30;;;;;;5079901;28;20120;-64
2023/06/13 05:22:39;;;;;;;3.40;2.43;;;21.30;51.40;;;;;;5061998;28;20478;-64
2023/06/13 05:25:08;;;;;;;4.28;2.53;;;21.30;51.20;;;;;;5085149;28;20039;-64
2023/06/13 05:27:35;;;;;;;4.03;2.42;;;21.40;51.10;;;;;;5051857;28;20024;-65
2023/06/13 05:30:01;;;;;;;4.07;2.80;;;21.40;51.10;;;;;;5084715;28;20031;-65
2023/06/13 05:32:26;;;;;;;3.80;2.60;;;21.40;51.30;;;;;;5062572;28;20327;-66
2023/06/13 05:34:52;;;;;;;5.03;2.80;;;21.50;51.30;;;;;;5074719;28;20178;-64
2023/06/13 05:37:18;;;;;;;3.80;2.60;;;21.50;51.30;;;;;;5083563;28;20036;-65
2023/06/13 05:39:44;;;;;;;4.20;2.70;;;21.60;51.40;;;;;;5064717;28;20028;-65
2023/06/13 05:42:11;;;;;;;4.80;2.75;;;21.60;51.30;;;;;;5054823;28;20084;-64
2023/06/13 05:44:37;;;;;;;3.83;2.75;;;21.60;51.20;;;;;;5077733;28;20385;-65
2023/06/13 05:47:03;;;;;;;3.60;2.30;;;21.70;51.10;;;;;;5070800;28;20047;-63
2023/06/13 05:49:29;;;;;;;4.45;2.60;;;21.70;51.10;;;;;;5065678;28;20624;-65
2023/06/13 05:51:55;;;;;;;2.97;2.40;;;21.80;51.10;;;;;;5097116;27;20103;-64
2023/06/13 05:54:21;;;;;;;4.13;2.50;;;21.80;51.10;;;;;;5065204;28;20029;-65
2023/06/13 05:56:46;;;;;;;3.38;2.47;;;21.90;51.10;;;;;;5049573;28;20349;-64
2023/06/13 05:59:14;;;;;;;5.43;2.50;;;21.90;51.00;;;;;;5070227;28;20556;-65
2023/06/13 06:01:45;;;;;;;3.92;2.75;;;22.00;51.30;;;;;;5085259;28;20027;-64
2023/06/13 06:04:11;;;;;;;3.92;2.60;;;22.10;50.90;;;;;;5042717;28;20121;-65
2023/06/13 06:06:37;;;;;;;3.30;2.30;;;22.10;50.90;;;;;;5070649;28;20473;-64
2023/06/13 06:09:04;;;;;;;4.32;2.67;;;22.20;50.90;;;;;;5076393;28;20652;-65
2023/06/13 06:11:31;;;;;;;4.00;2.53;;;22.30;50.90;;;;;;5069636;28;20226;-64
2023/06/13 06:13:57;;;;;;;3.60;2.63;;;22.40;51.70;;;;;;5052586;28;20059;-65
2023/06/13 06:16:22;;;;;;;3.13;2.20;;;22.50;50.90;;;;;;5081332;28;20390;-64
2023/06/13 06:18:50;;;;;;;3.25;2.40;;;22.60;50.70;;;;;;5062625;27;20024;-65
2023/06/13 06:21:16;;;;;;;4.30;2.65;;;22.60;50.60;;;;;;5080806;28;20019;-65
2023/06/13 06:23:42;;;;;;;3.77;2.60;;;22.70;50.60;;;;;;5082344;28;20054;-65
2023/06/13 06:26:09;;;;;;;4.55;2.65;;;22.80;50.80;;;;;;5064230;28;20414;-65
2023/06/13 06:28:35;;;;;;;3.58;2.50;;;22.80;50.50;;;;;;5037280;28;20503;-65
2023/06/13 06:31:01;;;;;;;3.97;2.43;;;22.90;50.60;;;;;;5084698;28;20016;-65
2023/06/13 06:33:27;;;;;;;5.43;2.40;;;23.00;50.50;;;;;;5060569;28;20160;-64
2023/06/13 06:35:53;;;;;;;4.07;2.28;;;23.00;50.40;;;;;;5074755;28;20502;-65
2023/06/13 06:38:19;;;;;;;3.80;2.40;;;23.10;50.40;;;;;;5076115;28;20020;-65
2023/06/13 06:40:45;;;;;;;3.50;2.53;;;23.20;50.40;;;;;;5060809;28;20308;-65
2023/06/13 06:43:10;;;;;;;3.28;2.50;;;23.20;50.20;;;;;;5044572;28;20495;-65
2023/06/13 06:45:36;;;;;;;3.43;2.60;;;23.30;50.30;;;;;;5071180;28;20040;-64
2023/06/13 06:48:03;;;;;;;3.47;2.53;;;23.40;50.40;;;;;;5068386;28;20119;-65
2023/06/13 06:50:29;;;;;;;4.63;2.70;;;23.50;50.30;;;;;;5076404;28;20475;-64
2023/06/13 06:52:55;;;;;;;3.40;2.53;;;23.50;50.30;;;;;;5075040;28;20036;-65
2023/06/13 06:55:21;;;;;;;4.95;2.67;;;23.60;50.00;;;;;;5059623;28;20131;-64
2023/06/13 06:57:46;;;;;;;6.10;2.80;;;23.70;49.90;;;;;;5047222;28;20043;-65
2023/06/13 07:00:14;;;;;;;5.83;2.70;;;23.70;50.00;;;;;;5060226;28;20251;-65
2023/06/13 07:02:43;;;;;;;3.97;2.50;;;23.80;49.90;;;;;;5074535;28;20050;-65
2023/06/13 07:05:09;;;;;;;4.25;2.72;;;23.90;49.80;;;;;;5072995;28;20034;-64
2023/06/13 07:07:36;;;;;;;4.35;2.50;;;24.00;49.80;;;;;;5071390;28;20797;-64
2023/06/13 07:10:03;;;;;;;4.40;2.70;;;24.10;49.70;;;;;;5076341;28;20059;-64
2023/06/13 07:12:32;;;;;;;3.72;2.70;;;24.20;49.80;;;;;;5073616;28;20040;-64
2023/06/13 07:14:57;;;;;;;3.80;2.60;;;24.20;49.70;;;;;;5049343;28;20670;-65
2023/06/13 07:17:24;;;;;;;3.97;2.80;;;24.30;49.50;;;;;;5082720;28;20089;-64
2023/06/13 07:19:49;;;;;;;4.67;2.50;;;24.40;49.30;;;;;;5068922;28;20016;-65
2023/06/13 07:22:15;;;;;;;3.67;2.70;;;24.50;49.50;;;;;;5072972;28;20666;-65
2023/06/13 07:24:41;;;;;;;3.42;2.50;;;24.70;49.40;;;;;;5083065;28;20067;-65
2023/06/13 07:27:07;;;;;;;3.70;2.70;;;24.70;49.10;;;;;;5059046;28;20104;-64
2023/06/13 07:29:34;;;;;;;5.47;2.63;;;24.80;48.90;;;;;;5058570;28;20016;-64
2023/06/13 07:32:00;;;;;;;3.60;2.50;;;24.90;48.80;;;;;;5080944;28;20370;-64
2023/06/13 07:34:26;;;;;;;3.53;2.80;;;25.00;48.60;;;;;;5077347;28;20039;-64
2023/06/13 07:36:53;;;;;;;5.07;2.65;;;25.10;48.60;;;;;;5085927;28;20386;-65
2023/06/13 07:39:20;;;;;;;3.67;2.67;;;25.10;48.50;;;;;;5077997;28;20020;-64
2023/06/13 07:41:48;;;;;;;3.13;2.60;;;25.20;48.40;;;;;;5079215;28;20360;-65
2023/06/13 07:44:15;;;;;;;4.38;2.83;;;25.30;48.50;;;;;;5031441;28;20039;-64
2023/06/13 07:46:40;;;;;;;4.78;2.70;;;25.40;48.40;;;;;;5085056;28;20044;-65
2023/06/13 07:49:06;;;;;;;4.50;2.70;;;25.50;48.50;;;;;;5072179;28;20097;-65
2023/06/13 07:51:32;;;;;;;3.83;2.70;;;25.70;48.50;;;;;;5087961;28;20046;-65
2023/06/13 07:53:57;;;;;;;4.03;2.58;;;25.80;48.40;;;;;;5069445;28;20127;-65
2023/06/13 07:56:23;;;;;;;3.80;2.50;;;25.90;48.30;;;;;;5086933;28;20028;-64
2023/06/13 07:58:49;;;;;;;5.57;2.70;;;26.00;48.30;;;;;;5052498;28;20088;-65
2023/06/13 08:01:16;;;;;;;4.38;3.00;;;26.20;48.50;;;;;;5072253;28;20281;-64
2023/06/13 08:03:44;;;;;;;3.17;2.67;;;26.40;49.00;;;;;;5087933;28;20027;-65
2023/06/13 08:06:10;;;;;;;4.47;2.70;;;26.60;49.10;;;;;;5073333;28;20586;-64
2023/06/13 08:08:35;;;;;;;4.22;2.85;;;26.90;49.00;;;;;;5089672;28;20099;-64
2023/06/13 08:11:01;;;;;;;4.13;3.00;;;27.20;48.40;;;;;;5071293;28;20281;-65
2023/06/13 08:13:27;;;;;;;4.40;3.00;;;27.40;48.00;;;;;;5063576;28;20039;-65
2023/06/13 08:15:53;;;;;;;3.80;2.95;;;27.70;48.40;;;;;;5057901;28;20478;-65
2023/06/13 08:18:18;;;;;;;4.00;2.90;;;28.00;48.80;;;;;;5081379;28;20028;-65
2023/06/13 08:20:45;;;;;;;3.42;2.70;;;28.40;49.30;;;;;;5073136;28;20027;-65
2023/06/13 08:23:12;;;;;;;3.03;2.70;;;28.80;49.60;;;;;;5084474;28;20644;-66
2023/06/13 08:25:37;;;;;;;4.78;2.83;;;29.30;49.40;;;;;;5072524;28;20242;-64
2023/06/13 08:28:06;;;;;;;6.50;2.90;;;29.90;49.10;;;;;;5086623;28;20123;-66
2023/06/13 08:30:32;;;;;;;5.53;2.95;;;30.40;48.40;;;;;;5041340;27;20208;-65
2023/06/13 08:33:01;;;;;;;4.20;3.07;;;30.90;47.80;;;;;;5084619;28;20020;-64
2023/06/13 08:35:27;;;;;;;3.13;2.80;;;31.30;47.00;;;;;;5083719;28;20050;-65
2023/06/13 08:37:53;;;;;;;3.70;2.80;;;31.80;46.70;;;;;;5075348;28;20028;-65
2023/06/13 08:40:19;;;;;;;4.27;2.97;;;32.20;46.30;;;;;;5074638;28;20023;-65
2023/06/13 08:42:46;;;;;;;3.40;2.88;;;32.60;46.40;;;;;;5085493;28;20024;-65
2023/06/13 08:45:12;;;;;;;3.70;3.10;;;33.00;44.90;;;;;;5016812;28;20035;-66
2023/06/13 08:47:40;;;;;;;5.38;2.97;;;33.40;44.20;;;;;;5064851;28;20067;-65
2023/06/13 08:50:06;;;;;;;4.53;2.90;;;33.80;43.60;;;;;;5084822;28;20458;-65
2023/06/13 08:52:40;;;;;;;5.60;3.30;;;34.10;42.60;;;;;;5073385;28;20125;-65
2023/06/13 08:55:12;;;;;;;3.78;3.00;;;34.40;41.30;;;;;;5082925;28;20070;-66
2023/06/13 08:57:41;;;;;;;4.57;3.00;;;34.60;41.40;;;;;;5084072;28;20117;-65
2023/06/13 09:00:15;;;;;;;3.90;2.92;;;34.90;40.80;;;;;;5066325;28;20020;-66
2023/06/13 09:02:43;;;;;;;4.17;3.00;;;35.10;39.70;;;;;;5056452;28;20501;-65
2023/06/13 09:05:13;;;;;;;3.50;3.20;;;35.30;39.50;;;;;;5076592;28;20040;-66
2023/06/13 09:07:40;;;;;;;5.53;3.50;;;35.60;38.50;;;;;;5072217;28;20449;-64
2023/06/13 09:10:10;;;;;;;3.80;3.25;;;35.80;37.90;;;;;;5088100;28;20024;-65
2023/06/13 09:12:36;;;;;;;4.40;3.28;;;35.80;37.40;;;;;;5071953;28;20020;-65
2023/06/13 09:15:03;;;;;;;3.30;2.90;;;35.90;37.00;;;;;;5082417;28;20024;-66
2023/06/13 09:17:29;;;;;;;5.15;3.08;;;36.10;37.00;;;;;;5028638;28;20677;-65
2023/06/13 09:19:55;;;;;;;3.25;2.90;;;36.20;36.80;;;;;;5085836;28;20020;-65
2023/06/13 09:22:21;;;;;;;4.17;3.07;;;36.30;36.40;;;;;;5071818;28;20232;-65
2023/06/13 09:24:47;;;;;;;3.93;3.40;;;36.40;35.70;;;;;;5087628;28;20346;-65
2023/06/13 09:27:14;;;;;;;3.70;3.25;;;36.50;35.40;;;;;;5074646;28;20032;-65
2023/06/13 09:29:39;;;;;;;5.45;3.20;;;36.60;35.40;;;;;;5080768;28;20073;-65
2023/06/13 09:32:08;;;;;;;3.33;3.03;;;36.80;35.20;;;;;;5041366;28;20428;-65
2023/06/13 09:34:34;;;;;;;4.28;3.50;;;36.90;35.10;;;;;;5082217;28;20012;-65
2023/06/13 09:37:00;;;;;;;4.00;3.60;;;37.00;34.70;;;;;;5085730;28;20118;-64
2023/06/13 09:39:27;;;;;;;3.65;3.22;;;37.10;34.40;;;;;;5056228;28;20392;-65
2023/06/13 09:41:55;;;;;;;3.78;3.47;;;37.20;34.30;;;;;;5085855;28;20028;-65
2023/06/13 09:44:25;;;;;;;3.70;3.30;;;37.40;34.00;;;;;;5071679;28;20028;-65
2023/06/13 09:46:53;;;;;;;3.88;3.35;;;37.50;33.60;;;;;;5066888;28;20020;-64
2023/06/13 09:49:19;;;;;;;4.13;3.28;;;37.60;33.40;;;;;;5051880;28;20034;-66
2023/06/13 09:51:45;;;;;;;4.82;3.60;;;37.70;33.30;;;;;;5085145;28;20025;-64
2023/06/13 09:54:13;;;;;;;4.72;3.50;;;37.80;32.70;;;;;;5070247;28;20038;-65
2023/06/13 09:56:43;;;;;;;3.53;3.23;;;37.90;32.20;;;;;;5084154;28;20027;-65
2023/06/13 09:59:16;;;;;;;3.72;3.28;;;37.90;31.80;;;;;;5070541;28;20474;-65
2023/06/13 10:01:42;;;;;;;3.38;3.08;;;38.00;31.40;;;;;;5069468;28;20110;-65
2023/06/13 10:04:09;;;;;;;3.60;3.30;;;38.00;31.70;;;;;;5050323;28;20031;-66
2023/06/13 10:06:36;;;;;;;4.38;3.47;;;38.20;31.80;;;;;;5084337;28;20236;-65
2023/06/13 10:09:02;;;;;;;3.63;3.33;;;38.20;31.30;;;;;;5082957;28;20063;-66
2023/06/13 10:11:31;;;;;;;4.05;3.65;;;38.20;31.40;;;;;;5059376;28;20689;-65
2023/06/13 10:14:07;;;;;;;4.10;3.42;;;38.40;31.40;;;;;;5071824;28;20038;-66
2023/06/13 10:16:40;;;;;;;4.10;3.70;;;38.50;30.80;;;;;;5065855;28;20032;-65
2023/06/13 10:19:11;;;;;;;3.50;3.15;;;38.70;31.10;;;;;;5055993;28;20027;-65
2023/06/13 10:21:38;;;;;;;4.10;3.27;;;38.90;31.00;;;;;;5087123;28;20285;-65
2023/06/13 10:24:05;;;;;;;4.32;3.90;;;39.00;31.00;;;;;;5083200;28;20024;-65
2023/06/13 10:26:39;;;;;;;4.57;3.53;;;39.20;30.00;;;;;;5073446;28;20293;-65
2023/06/13 10:29:27;;;;;;;3.65;3.35;;;39.30;29.30;;;;;;5070863;28;20691;-65
2023/06/13 10:32:02;;;;;;;4.25;3.85;;;39.40;29.60;;;;;;5067680;28;20047;-65
2023/06/13 10:34:47;;;;;;;3.63;3.33;;;39.50;29.70;;;;;;5053780;28;20082;-65
2023/06/13 10:37:43;;;;;;;4.32;3.92;;;39.50;29.00;;;;;;5081501;28;20105;-66
2023/06/13 10:40:35;;;;;;;4.03;3.63;;;39.60;28.70;;;;;;5080874;28;20032;-66
2023/06/13 10:43:19;;;;;;;4.00;3.45;;;39.60;28.60;;;;;;5065120;28;20059;-66
2023/06/13 10:45:46;;;;;;;4.10;3.58;;;39.70;28.40;;;;;;5073430;28;20107;-65
2023/06/13 10:48:12;;;;;;;4.27;3.87;;;39.70;29.10;;;;;;5034214;28;20323;-65
2023/06/13 10:50:43;;;;;;;4.57;3.97;;;39.80;29.10;;;;;;5083323;28;20073;-64
2023/06/13 10:53:24;;;;;;;5.28;3.88;;;39.90;28.70;;;;;;5081318;28;20596;-66
2023/06/13 10:55:50;;;;;;;4.25;3.50;;;39.90;28.60;;;;;;5083540;28;20027;-66
2023/06/13 10:58:16;;;;;;;3.70;3.40;;;40.00;28.50;;;;;;5072820;28;20032;-65
2023/06/13 11:00:43;;;;;;;4.28;3.60;;;40.00;28.50;;;;;;5080396;28;20103;-65
2023/06/13 11:03:13;;;;;;;5.88;3.80;;;40.10;28.50;;;;;;5070733;28;20124;-65
2023/06/13 11:05:44;;;;;;;5.22;3.47;;;40.20;27.70;;;;;;5057878;28;20036;-65
2023/06/13 11:08:25;;;;;;;4.00;3.53;;;40.30;28.10;;;;;;5084945;28;20032;-65
2023/06/13 11:10:52;;;;;;;3.80;3.50;;;40.40;27.60;;;;;;5071431;28;20065;-66
2023/06/13 11:13:26;;;;;;;4.20;3.80;;;40.50;27.90;;;;;;5083868;28;20386;-65
2023/06/13 11:15:56;;;;;;;4.57;3.42;;;40.60;27.40;;;;;;5084361;28;20043;-66
2023/06/13 11:18:22;;;;;;;4.10;3.70;;;40.70;27.50;;;;;;5068176;28;20231;-65
2023/06/13 11:20:52;;;;;;;4.00;3.60;;;40.80;27.60;;;;;;5061197;28;20436;-65
2023/06/13 11:23:18;;;;;;;3.83;3.53;;;40.90;27.40;;;;;;5089428;28;20128;-65
2023/06/13 11:25:48;;;;;;;4.63;4.00;;;40.90;27.30;;;;;;5073159;28;20086;-66
2023/06/13 11:28:14;;;;;;;3.90;3.58;;;40.90;26.90;;;;;;5081930;28;20031;-65
2023/06/13 11:30:49;;;;;;;3.55;3.25;;;41.00;27.20;;;;;;5071827;28;20028;-66
2023/06/13 11:33:16;;;;;;;3.77;3.10;;;41.10;27.00;;;;;;5088321;28;20035;-65
2023/06/13 11:35:53;;;;;;;3.60;3.25;;;41.10;26.80;;;;;;5041134;28;20027;-65
2023/06/13 11:38:31;;;;;;;4.38;3.78;;;41.20;26.70;;;;;;5080571;28;20031;-66
2023/06/13 11:40:58;;;;;;;3.80;3.50;;;41.20;26.20;;;;;;5059555;28;20028;-65
2023/06/13 11:43:25;;;;;;;3.92;3.58;;;41.30;26.40;;;;;;5076774;28;20601;-65
2023/06/13 11:45:57;;;;;;;3.80;3.20;;;41.20;26.00;;;;;;5081466;28;20164;-65
2023/06/13 11:48:26;;;;;;;4.55;3.75;;;41.30;25.80;;;;;;5073509;27;20065;-65
2023/06/13 11:50:53;;;;;;;3.55;3.25;;;41.20;26.10;;;;;;5031881;27;20468;-65
2023/06/13 11:53:19;;;;;;;3.90;3.60;;;41.30;26.00;;;;;;5078909;28;20028;-65
2023/06/13 11:55:46;;;;;;;3.90;3.47;;;41.40;26.10;;;;;;5086210;27;20585;-66
2023/06/13 11:58:11;;;;;;;3.67;3.37;;;41.40;25.70;;;;;;5086925;27;20028;-65
2023/06/13 12:00:53;;;;;;;4.35;3.95;;;41.40;25.90;;;;;;5078139;27;20520;-65
2023/06/13 12:03:22;;;;;;;3.83;3.53;;;41.40;25.30;;;;;;5077666;28;20023;-66
2023/06/13 12:05:48;;;;;;;3.92;3.63;;;41.40;25.80;;;;;;5068050;27;20494;-66
2023/06/13 12:08:16;;;;;;;4.10;3.50;;;41.50;25.60;;;;;;5049808;28;20020;-65
2023/06/13 12:10:49;;;;;;;4.50;4.10;;;41.60;25.50;;;;;;5083253;27;20127;-66
2023/06/13 12:13:17;;;;;;;4.25;3.85;;;41.70;25.40;;;;;;5081665;27;20023;-65
2023/06/13 12:15:43;;;;;;;4.00;3.60;;;41.60;25.10;;;;;;5072856;28;20521;-66
2023/06/13 12:18:09;;;;;;;4.00;3.70;;;41.70;25.30;;;;;;5063779;28;20250;-65
2023/06/13 12:20:50;;;;;;;4.23;3.83;;;41.60;25.10;;;;;;5083707;28;20382;-66
2023/06/13 12:23:17;;;;;;;4.25;3.85;;;41.50;24.90;;;;;;5053567;27;20217;-64
2023/06/13 12:25:44;;;;;;;3.75;3.30;;;41.50;25.10;;;;;;5074804;28;20423;-66
2023/06/13 12:28:15;;;;;;;3.75;3.45;;;41.50;25.10;;;;;;5086380;27;20050;-66
2023/06/13 12:30:42;;;;;;;4.47;3.65;;;41.60;25.20;;;;;;5073771;27;20027;-66
2023/06/13 12:33:15;;;;;;;4.13;3.73;;;41.60;25.10;;;;;;5075400;28;20172;-66
2023/06/13 12:35:51;;;;;;;3.92;3.63;;;41.70;25.00;;;;;;5068075;28;20051;-66
2023/06/13 12:38:26;;;;;;;4.82;4.43;;;41.60;24.20;;;;;;5061247;27;20453;-65
2023/06/13 12:40:53;;;;;;;3.97;3.58;;;41.40;24.30;;;;;;5061467;28;20024;-65
2023/06/13 12:43:26;;;;;;;4.20;3.80;;;41.20;24.60;;;;;;5084548;27;20019;-65
2023/06/13 12:45:55;;;;;;;3.83;3.53;;;41.10;24.30;;;;;;5073052;27;20388;-65
2023/06/13 12:48:21;;;;;;;3.60;3.30;;;41.00;24.70;;;;;;5066683;28;20108;-65
2023/06/13 12:50:48;;;;;;;4.07;3.63;;;40.90;24.70;;;;;;5073445;28;20490;-66
2023/06/13 12:53:21;;;;;;;5.13;4.03;;;40.90;24.70;;;;;;5056076;27;20032;-66